Cape Girardeau, MO (63701)

5:24 PM CST on December 06, 2016 (GMT -0600)
Cape Girardeau | | Change Station

Elev 404 ft 37.34 °N, 89.57 °W | Updated 23 seconds ago

Overcast
Overcast
41.9 °F
Feels Like 38 °F
N
6.8
Wind Variable Wind from East

Today
High -- | Low -- °F
--% Chance of Precip.
Yesterday
High -- | Low -- °F
Precip. -- in
Pressure 30.01 in
Visibility 10.0 miles
Clouds Overcast 2000 ft
Windchill 38 °F
Dew Point 38 °F
Humidity 87%
Rainfall 0.51 in
Snow Depth Not available.
6:58 AM 4:40 PM
Waxing Crescent, 46% visible
METAR KCGI 062253Z AUTO 34010KT 10SM OVC020 06/02 A3000 RMK AO2 SLP161 T00610022
Pressure 30.01 in
Visibility 10.0 miles
Clouds Overcast 2000 ft
Windchill 38 °F
Dew Point 38 °F
Humidity 87%
Rainfall 0.51 in
Snow Depth Not available.
6:58 AM 4:40 PM
Waxing Crescent, 46% visible
METAR KCGI 062253Z AUTO 34010KT 10SM OVC020 06/02 A3000 RMK AO2 SLP161 T00610022

10-Day Weather Forecast

Almanac

Astronomy

Dec. 06, 2016 Rise Set
Actual Time
Civil Twilight
Nautical Twilight
Astronomical Twilight
Moon
Length of Visible Light
Length of Day
Tomorrow will be .
, % of the Moon is Illuminated

Today's Extremes

State Highs State Lows

Community

WunderPhotos

Upload Photos

1,956,044 photos uploaded!

WunderBlog® & News

Nearby

Air Quality

  Air Quality AQ Index Pollutant
Not available.

Snow Depth

Station Depth Elevation

Earthquake Activity

City Distance Mag. Time & Date
Minimum magnitude displayed is 2.5.

Coastal Water Temperatures

Place Temperature

Stations

Nearby Weather Stations

Station Location Temp. Windchill Dew Point Humidity Wind Precip. Elev Updated Type
                   

Watches & Warnings

There are currently no watches in effect.